Skip Navigation LinksHome page > Weather > Current weather Skip Navigation Links

Current Weather

Phoenix Sky Harbor Intl, Phoenix, Ariz.

For information only: do not use for flight planning or navigation.
Latest weather
Observation time Tuesday, October 26, 2021 11:51 PM MST
Local time Wednesday, October 27, 2021 12:08 AM MST
Flight conditions Visual Meteorological Conditions
Winds
Wind direction West (280°)
Wind speed 7 mph
Visibility 10 mi.
Sky condition
Ceiling unlimited
Sky clear
Temperature 65°F
Dewpoint 27°F
Altimeter 30.03 in.Hg
Derived measurements
Relative humidity 24%
Density altitude 1480 ft.
Sea-level pressure 29.99 in.Hg
Climate data
Temperature minimum, last 24 hours 60°F
Temperature maximum, last 24 hours 77°F
Remarks
Automated weather observing station with precipitation discriminator.
METAR KPHX 270651Z 28006KT 10SM CLR 18/M03 A3003 RMK AO2 SLP157 T01831028 402500156

Settings

Location code

InnerDrive.Weather 4.0.6770.0 Release CLR 4.0.30319.42000
Copyright ©2018 Inner Drive Technology. All rights reserved. Portions Copyright ©1986-2018 David Braverman.

Find weather

Site navigation


Skip Navigation Links

Place info

Page info

PayPal - The safer, easier way to pay online!

Return home.

Copyright ©2021 Inner Drive Technology. Purveyors of fine, hand-crafted computer software. Page printed 2021-10-27T07:08:03 UTC.